Adamsville, Pennsylvania
Current Conditions -  °F | °C
As of 10:53 AM on Saturday 20 Dec 2014 (Local Time) from KGKJ Reporting Station
Overcast Overcast  
Wind Chill: 23°   Ceiling: 1800
Heat Index: 28°   Visibility: 10mi
Dew Point: 20°   Wind: 5mph
Humidity: 72%   Direction: 10°N
Pressure: 30.24"   Gusts: NA
Location:  41.51°N, 80.37°W
Report Text: KGKJ 201553Z AUTO 01004KT 10SM OVC018 M02/M07 A3024 RMK AO2 SLP258 T10221067 TSNO
Loading
Personal Weather Stations






























Interactive Weather Map New forecast layout! Learn more

10-Day Weather Forecast

Advertisements
Track Severe Weather on mobile